createdAt,value
2018-08-18T00:00:14.648Z,75.60
2018-08-18T00:02:43.058Z,74.80
2018-08-18T00:05:12.254Z,75.60
2018-08-18T00:07:41.180Z,75.00
2018-08-18T00:10:10.344Z,75.30
2018-08-18T00:12:38.738Z,75.20
2018-08-18T00:15:08.332Z,75.60
2018-08-18T00:17:37.604Z,76.10
2018-08-18T00:20:08.520Z,76.70
2018-08-18T00:22:36.937Z,76.10
2018-08-18T00:25:06.256Z,76.50
2018-08-18T00:27:34.612Z,76.30
2018-08-18T00:30:08.471Z,76.40
2018-08-18T00:32:37.419Z,76.70
2018-08-18T00:35:07.399Z,76.60
2018-08-18T00:37:35.993Z,76.70
2018-08-18T00:40:05.850Z,77.10
2018-08-18T00:42:34.284Z,77.50
2018-08-18T00:45:02.739Z,78.00
2018-08-18T00:47:31.074Z,78.50
2018-08-18T00:49:59.474Z,77.90
2018-08-18T00:52:27.854Z,78.60
2018-08-18T00:54:56.223Z,77.70
2018-08-18T00:57:29.054Z,78.10
2018-08-18T00:59:57.662Z,77.60
2018-08-18T01:02:26.514Z,78.20
2018-08-18T01:05:03.403Z,78.30
2018-08-18T01:07:32.997Z,78.00
2018-08-18T01:10:02.026Z,77.90
2018-08-18T01:12:30.556Z,78.10
2018-08-18T01:14:58.923Z,78.50
2018-08-18T01:17:27.507Z,78.20
2018-08-18T01:19:57.644Z,78.50
2018-08-18T01:22:26.091Z,78.70
2018-08-18T01:24:55.359Z,79.40
2018-08-18T01:27:23.781Z,78.60
2018-08-18T01:29:57.472Z,79.70
2018-08-18T01:32:25.919Z,79.60
2018-08-18T01:34:54.499Z,79.00
2018-08-18T01:37:22.887Z,79.40
2018-08-18T01:39:56.042Z,80.30
2018-08-18T01:42:24.484Z,80.60
2018-08-18T01:44:53.942Z,81.40
2018-08-18T01:47:22.325Z,81.90
2018-08-18T01:49:50.672Z,81.90
2018-08-18T01:52:22.975Z,82.50
2018-08-18T01:54:51.439Z,82.80
2018-08-18T01:57:21.211Z,82.70
2018-08-18T01:59:49.669Z,82.80
2018-08-18T02:02:26.940Z,82.80
2018-08-18T02:05:01.183Z,83.10
2018-08-18T02:07:30.868Z,83.20
2018-08-18T02:09:59.314Z,83.20
2018-08-18T02:12:28.164Z,83.40
2018-08-18T02:14:56.939Z,83.70
2018-08-18T02:17:27.125Z,83.90
2018-08-18T02:19:55.954Z,84.10
2018-08-18T02:22:25.107Z,84.00
2018-08-18T02:24:53.570Z,84.20
2018-08-18T02:27:21.991Z,83.50
2018-08-18T02:30:02.267Z,83.40
2018-08-18T02:32:31.948Z,83.50
2018-08-18T02:35:00.399Z,83.60
2018-08-18T02:37:29.641Z,83.80
2018-08-18T02:39:58.092Z,84.40
2018-08-18T02:42:26.523Z,85.30
2018-08-18T02:44:55.040Z,85.20
2018-08-18T02:47:23.760Z,84.50
2018-08-18T02:49:53.289Z,84.50
2018-08-18T02:52:27.099Z,85.30
2018-08-18T02:54:57.385Z,85.70
2018-08-18T02:57:29.781Z,86.20
2018-08-18T03:00:03.313Z,85.60
2018-08-18T03:02:31.679Z,85.70
2018-08-18T03:05:00.199Z,86.10
2018-08-18T03:07:33.921Z,86.10
2018-08-18T03:10:10.147Z,86.20
2018-08-18T03:12:42.771Z,86.20
2018-08-18T03:15:13.103Z,86.30
2018-08-18T03:17:41.500Z,85.70
2018-08-18T03:20:09.950Z,85.50
2018-08-18T03:22:40.295Z,86.20
2018-08-18T03:25:09.080Z,86.20
2018-08-18T03:27:37.459Z,86.50
2018-08-18T03:30:05.931Z,86.80
2018-08-18T03:32:34.320Z,87.90
2018-08-18T03:35:02.666Z,88.80
2018-08-18T03:37:31.887Z,89.10
2018-08-18T03:40:00.901Z,89.80
2018-08-18T03:42:34.564Z,88.80
2018-08-18T03:45:05.020Z,89.70
2018-08-18T03:47:33.411Z,89.50
2018-08-18T03:50:01.816Z,89.90
2018-08-18T03:52:30.171Z,89.40
2018-08-18T03:54:59.209Z,89.90
2018-08-18T03:57:39.450Z,90.10
2018-08-18T04:00:07.866Z,90.00
2018-08-18T04:02:36.255Z,90.20
2018-08-18T04:05:08.972Z,90.20
2018-08-18T04:07:51.768Z,90.20
2018-08-18T04:10:20.200Z,90.20
2018-08-18T04:12:48.592Z,90.20
2018-08-18T04:15:17.660Z,90.30
2018-08-18T04:17:46.042Z,90.20
2018-08-18T04:20:15.721Z,90.20
2018-08-18T04:22:44.294Z,90.80
2018-08-18T04:25:12.771Z,89.70
2018-08-18T04:27:43.830Z,89.10
2018-08-18T04:30:18.227Z,89.90
2018-08-18T04:32:52.462Z,89.00
2018-08-18T04:35:22.842Z,88.60
2018-08-18T04:37:52.169Z,87.10
2018-08-18T04:40:22.325Z,88.30
2018-08-18T04:42:50.776Z,86.30
2018-08-18T04:45:20.361Z,86.60
2018-08-18T04:47:48.821Z,85.90
2018-08-18T04:50:17.200Z,85.70
2018-08-18T04:52:45.639Z,84.80
2018-08-18T04:55:14.951Z,83.80
2018-08-18T04:57:43.325Z,83.90
2018-08-18T05:00:13.316Z,82.90
2018-08-18T05:02:59.677Z,81.80
2018-08-18T05:05:30.255Z,81.90
2018-08-18T05:07:59.407Z,82.00
2018-08-18T05:10:28.091Z,81.10
2018-08-18T05:12:57.404Z,80.20
2018-08-18T05:15:25.785Z,78.00
2018-08-18T05:17:54.128Z,77.30
2018-08-18T05:20:24.520Z,76.30
2018-08-18T05:22:54.080Z,77.00
2018-08-18T05:25:29.098Z,76.50
2018-08-18T05:27:57.942Z,76.10
2018-08-18T05:30:26.303Z,76.00
2018-08-18T05:32:54.690Z,77.10
2018-08-18T05:35:23.110Z,77.40
2018-08-18T05:37:51.536Z,78.40
2018-08-18T05:40:20.604Z,77.90
2018-08-18T05:42:48.926Z,79.00
2018-08-18T05:45:29.059Z,78.80
2018-08-18T05:47:57.764Z,79.20
2018-08-18T05:50:27.284Z,80.20
2018-08-18T05:53:31.404Z,80.50
2018-08-18T05:56:00.540Z,80.90
2018-08-18T05:58:41.120Z,81.00
2018-08-18T06:01:23.052Z,80.60
2018-08-18T06:03:57.165Z,80.40
2018-08-18T06:06:25.718Z,79.00
2018-08-18T06:08:54.232Z,78.80
2018-08-18T06:11:22.670Z,79.10
2018-08-18T06:13:51.123Z,79.60
2018-08-18T06:16:19.529Z,79.60
2018-08-18T06:18:48.005Z,79.50
2018-08-18T06:21:16.447Z,78.70
2018-08-18T06:23:46.116Z,78.20
2018-08-18T06:26:14.511Z,79.50
2018-08-18T06:28:43.026Z,79.00
2018-08-18T06:31:11.430Z,77.70
2018-08-18T06:33:40.786Z,76.30
2018-08-18T06:36:09.211Z,75.90
2018-08-18T06:38:37.590Z,75.10
2018-08-18T06:41:06.845Z,76.00
2018-08-18T06:43:35.485Z,74.80
2018-08-18T06:46:04.122Z,74.80
2018-08-18T06:48:34.431Z,75.50
2018-08-18T06:51:02.992Z,74.30
2018-08-18T06:53:36.871Z,72.90
2018-08-18T06:56:05.509Z,74.20
2018-08-18T06:58:33.956Z,75.10
2018-08-18T07:01:02.391Z,74.50
2018-08-18T07:03:43.359Z,74.30
2018-08-18T07:06:12.693Z,73.60
2018-08-18T07:08:46.447Z,72.80
2018-08-18T07:11:14.939Z,71.90
2018-08-18T07:13:46.562Z,70.60
2018-08-18T07:16:14.976Z,70.10
2018-08-18T07:18:43.705Z,69.30
2018-08-18T07:21:12.074Z,69.50
2018-08-18T07:23:40.454Z,70.10
2018-08-18T07:26:08.806Z,69.90
2018-08-18T07:28:37.315Z,68.70
2018-08-18T07:31:06.429Z,68.00
2018-08-18T07:33:35.317Z,68.10
2018-08-18T07:36:03.714Z,67.40
2018-08-18T07:38:33.190Z,67.60
2018-08-18T07:41:01.574Z,67.70
2018-08-18T07:43:31.358Z,66.80
2018-08-18T07:46:01.230Z,66.80
2018-08-18T07:48:29.588Z,67.10
2018-08-18T07:50:58.080Z,67.20
2018-08-18T07:53:26.842Z,67.20
2018-08-18T07:55:55.248Z,66.30
2018-08-18T07:58:24.849Z,65.60
2018-08-18T08:00:55.620Z,64.50
2018-08-18T08:03:24.028Z,63.70
2018-08-18T08:05:52.529Z,60.90
2018-08-18T08:08:20.858Z,59.30
2018-08-18T08:10:49.201Z,58.00
2018-08-18T08:13:17.593Z,57.30
2018-08-18T08:15:46.009Z,56.70
2018-08-18T08:18:15.570Z,57.60
2018-08-18T08:20:43.931Z,56.20
2018-08-18T08:23:13.335Z,53.70
2018-08-18T08:25:41.736Z,53.70
2018-08-18T08:28:10.215Z,53.10
2018-08-18T08:30:38.600Z,52.70
2018-08-18T08:33:07.068Z,53.10
2018-08-18T08:35:37.521Z,53.50
2018-08-18T08:38:05.931Z,54.90
2018-08-18T08:40:34.366Z,53.60
2018-08-18T08:43:02.857Z,53.40
2018-08-18T08:45:31.283Z,53.10
2018-08-18T08:47:59.819Z,54.00
2018-08-18T08:50:28.221Z,53.60
2018-08-18T08:52:57.452Z,54.10
2018-08-18T08:55:27.096Z,53.50
2018-08-18T08:57:55.541Z,53.50
2018-08-18T09:00:24.003Z,53.30
2018-08-18T09:02:52.423Z,53.10
2018-08-18T09:05:21.096Z,53.00
2018-08-18T09:07:49.483Z,52.50
2018-08-18T09:10:18.307Z,51.10
2018-08-18T09:12:46.679Z,53.20
2018-08-18T09:15:16.321Z,48.40
2018-08-18T09:17:44.878Z,46.10
2018-08-18T09:20:18.287Z,49.10
2018-08-18T09:22:54.258Z,49.20
2018-08-18T09:25:22.654Z,49.70
2018-08-18T09:27:59.296Z,49.20
2018-08-18T09:30:29.698Z,50.20
2018-08-18T09:33:02.244Z,48.90
2018-08-18T09:35:33.432Z,46.60
2018-08-18T09:38:01.904Z,45.50
2018-08-18T09:40:32.403Z,45.00
2018-08-18T09:43:04.059Z,45.70
2018-08-18T09:45:32.520Z,46.00
2018-08-18T09:48:00.934Z,47.30
2018-08-18T09:50:30.304Z,49.00
2018-08-18T09:52:59.625Z,50.80
2018-08-18T09:55:28.542Z,48.90
2018-08-18T09:57:56.975Z,52.70
2018-08-18T10:00:30.701Z,52.80
2018-08-18T10:02:59.126Z,49.10
2018-08-18T10:05:27.523Z,48.30
2018-08-18T10:07:55.915Z,49.70
2018-08-18T10:10:24.339Z,50.20
2018-08-18T10:12:52.751Z,49.10
2018-08-18T10:15:21.244Z,50.40
2018-08-18T10:17:49.698Z,49.40
2018-08-18T10:20:18.695Z,50.00
2018-08-18T10:22:47.871Z,47.90
2018-08-18T10:25:16.361Z,46.80
2018-08-18T10:27:44.817Z,46.30
2018-08-18T10:30:13.271Z,42.60
2018-08-18T10:32:46.999Z,40.30
2018-08-18T10:35:19.667Z,42.40
2018-08-18T10:37:48.090Z,44.40
2018-08-18T10:40:16.507Z,45.00
2018-08-18T10:42:45.075Z,45.60
2018-08-18T10:45:13.653Z,46.60
2018-08-18T10:47:42.159Z,47.40
2018-08-18T10:52:24.890Z,47.80
2018-08-18T10:54:53.371Z,48.50
2018-08-18T10:57:33.857Z,48.10
2018-08-18T11:00:07.551Z,48.60
2018-08-18T11:02:36.620Z,50.80
2018-08-18T11:05:05.762Z,50.50
2018-08-18T11:07:34.190Z,47.20
2018-08-18T11:10:02.663Z,51.60
2018-08-18T11:12:35.460Z,49.20
2018-08-18T11:15:05.124Z,48.10
2018-08-18T11:17:33.500Z,46.30
2018-08-18T11:20:07.132Z,47.50
2018-08-18T11:23:11.010Z,47.40
2018-08-18T11:25:48.726Z,46.00
2018-08-18T11:28:17.531Z,46.00
2018-08-18T11:30:45.873Z,45.10
2018-08-18T11:33:54.047Z,45.60
2018-08-18T11:36:22.433Z,46.40
2018-08-18T11:38:50.846Z,45.40
2018-08-18T11:41:19.214Z,46.70
2018-08-18T11:43:49.771Z,45.50
2018-08-18T11:46:18.177Z,45.80
2018-08-18T11:48:46.540Z,45.60
2018-08-18T11:51:14.967Z,46.60
2018-08-18T11:53:56.337Z,44.10
2018-08-18T11:56:24.939Z,42.20
2018-08-18T11:59:04.741Z,42.90
2018-08-18T12:01:36.650Z,44.90
2018-08-18T12:04:05.183Z,43.80
2018-08-18T12:06:33.573Z,41.20
2018-08-18T12:09:02.244Z,40.20
2018-08-18T12:11:30.672Z,38.70
2018-08-18T12:13:59.024Z,40.50
2018-08-18T12:16:27.611Z,43.20
2018-08-18T12:18:56.033Z,46.80
2018-08-18T12:21:24.575Z,45.80
2018-08-18T12:23:53.033Z,45.00
2018-08-18T12:26:23.151Z,43.40
2018-08-18T12:28:53.256Z,42.50
2018-08-18T12:31:23.737Z,40.20
2018-08-18T12:33:52.264Z,39.70
2018-08-18T12:36:21.684Z,38.80
2018-08-18T12:38:52.003Z,40.10
2018-08-18T12:41:20.471Z,42.70
2018-08-18T12:43:50.547Z,42.90
2018-08-18T12:46:23.143Z,42.90
2018-08-18T12:48:53.739Z,44.20
2018-08-18T12:51:22.799Z,44.80
2018-08-18T12:53:57.546Z,44.30
2018-08-18T12:56:27.761Z,44.60
2018-08-18T12:58:56.240Z,45.60
2018-08-18T13:01:36.595Z,47.00
2018-08-18T13:04:06.703Z,47.30
2018-08-18T13:06:39.502Z,45.50
2018-08-18T13:09:09.831Z,46.80
2018-08-18T13:11:38.324Z,48.60
2018-08-18T13:14:07.299Z,49.30
2018-08-18T13:16:36.724Z,50.30
2018-08-18T13:19:05.596Z,50.60
2018-08-18T13:21:33.974Z,49.20
2018-08-18T13:24:03.124Z,48.70
2018-08-18T13:26:31.642Z,48.80
2018-08-18T13:29:00.001Z,48.30
2018-08-18T13:31:33.804Z,48.90
2018-08-18T13:34:02.218Z,48.90
2018-08-18T13:36:30.672Z,48.60
2018-08-18T13:38:59.072Z,48.80
2018-08-18T13:41:27.464Z,50.60
2018-08-18T13:43:55.880Z,50.00
2018-08-18T13:46:35.441Z,47.20
2018-08-18T13:49:05.464Z,46.10
2018-08-18T13:51:33.842Z,46.70
2018-08-18T13:54:03.145Z,46.70
2018-08-18T13:56:32.161Z,46.10
2018-08-18T13:59:00.584Z,46.60
2018-08-18T14:01:34.691Z,46.50
2018-08-18T14:04:03.398Z,46.80
2018-08-18T14:06:39.578Z,48.10
2018-08-18T14:09:09.859Z,47.10
2018-08-18T14:11:38.428Z,47.20
2018-08-18T14:14:07.238Z,47.80
2018-08-18T14:16:35.623Z,48.20
2018-08-18T14:19:04.064Z,48.90
2018-08-18T14:21:32.484Z,47.60
2018-08-18T14:24:00.922Z,46.90
2018-08-18T14:26:29.258Z,47.30
2018-08-18T14:28:57.692Z,47.00
2018-08-18T14:31:26.757Z,45.60
2018-08-18T14:33:55.129Z,44.70
2018-08-18T14:36:23.723Z,44.10
2018-08-18T14:38:52.733Z,45.50
2018-08-18T14:41:51.662Z,45.00
2018-08-18T14:44:20.074Z,45.10
2018-08-18T14:46:48.637Z,46.90
2018-08-18T14:49:17.011Z,46.50
2018-08-18T14:51:46.064Z,46.60
2018-08-18T14:54:18.927Z,47.10
2018-08-18T14:56:47.200Z,47.60
2018-08-18T14:59:15.644Z,47.10
2018-08-18T15:01:43.978Z,46.80
2018-08-18T15:04:12.377Z,48.20
2018-08-18T15:06:40.794Z,48.40
2018-08-18T15:09:09.272Z,48.40
2018-08-18T15:11:37.740Z,48.50
2018-08-18T15:14:06.312Z,49.60
2018-08-18T15:16:34.757Z,49.80
2018-08-18T15:19:03.219Z,49.30
2018-08-18T15:21:31.685Z,49.80
2018-08-18T15:24:01.101Z,49.70
2018-08-18T15:26:29.811Z,49.20
2018-08-18T15:28:58.172Z,48.00
2018-08-18T15:31:26.662Z,49.10
2018-08-18T15:33:55.031Z,50.00
2018-08-18T15:36:31.542Z,49.70
2018-08-18T15:39:00.037Z,49.30
2018-08-18T15:41:28.983Z,49.20
2018-08-18T15:43:57.354Z,48.80
2018-08-18T15:46:26.068Z,49.00
2018-08-18T15:48:54.495Z,49.20
2018-08-18T15:51:22.871Z,49.70
2018-08-18T15:54:02.861Z,49.40
2018-08-18T15:56:33.548Z,49.80
2018-08-18T15:59:02.717Z,50.00
2018-08-18T16:01:32.419Z,49.90
2018-08-18T16:04:02.139Z,51.00
2018-08-18T16:06:30.609Z,50.90
2018-08-18T16:08:59.086Z,51.70
2018-08-18T16:11:27.485Z,51.00
2018-08-18T16:13:55.891Z,50.50
2018-08-18T16:16:24.887Z,51.10
2018-08-18T16:19:03.232Z,51.20
2018-08-18T16:21:32.697Z,51.20
2018-08-18T16:24:01.668Z,50.30
2018-08-18T16:26:30.093Z,51.10
2018-08-18T16:28:58.531Z,50.60
2018-08-18T16:31:27.008Z,50.70
2018-08-18T16:33:55.456Z,50.40
2018-08-18T16:36:27.347Z,50.90
2018-08-18T16:38:55.790Z,51.40
2018-08-18T16:41:25.064Z,51.30
2018-08-18T16:43:53.469Z,51.40
2018-08-18T16:46:29.304Z,51.50
2018-08-18T16:48:57.739Z,51.70
2018-08-18T16:51:26.150Z,51.20
2018-08-18T16:53:54.555Z,51.40
2018-08-18T16:56:25.592Z,52.20
2018-08-18T16:58:55.589Z,52.90
2018-08-18T17:01:24.325Z,51.70
2018-08-18T17:03:52.757Z,52.00
2018-08-18T17:06:21.736Z,52.40
2018-08-18T17:08:50.135Z,52.60
2018-08-18T17:11:18.701Z,53.20
2018-08-18T17:13:47.089Z,53.40
2018-08-18T17:16:15.683Z,53.50
2018-08-18T17:18:44.200Z,53.50
2018-08-18T17:21:13.582Z,53.50
2018-08-18T17:23:42.450Z,53.10
2018-08-18T17:26:10.840Z,53.60
2018-08-18T17:28:39.416Z,53.30
2018-08-18T17:31:07.839Z,53.40
2018-08-18T17:33:36.276Z,53.20
2018-08-18T17:36:04.736Z,53.80
2018-08-18T17:38:33.128Z,53.40
2018-08-18T17:41:01.486Z,53.80
2018-08-18T17:43:29.898Z,54.60
2018-08-18T17:46:01.284Z,55.00
2018-08-18T17:48:30.556Z,54.90
2018-08-18T17:50:58.976Z,54.60
2018-08-18T17:53:27.432Z,54.80
2018-08-18T17:56:03.026Z,54.90
2018-08-18T17:58:31.998Z,54.10
2018-08-18T18:01:01.424Z,55.10
2018-08-18T18:03:32.840Z,55.00
2018-08-18T18:06:01.531Z,55.00
2018-08-18T18:08:29.958Z,56.10
2018-08-18T18:10:58.971Z,55.80
2018-08-18T18:13:30.177Z,55.60
2018-08-18T18:15:59.146Z,56.00
2018-08-18T18:19:01.113Z,55.80
2018-08-18T18:21:29.591Z,56.80
2018-08-18T18:23:58.041Z,56.30
2018-08-18T18:26:26.499Z,56.80
2018-08-18T18:28:54.871Z,57.50
2018-08-18T18:31:23.272Z,57.30
2018-08-18T18:34:08.075Z,56.80
2018-08-18T18:36:37.200Z,56.80
2018-08-18T18:39:06.232Z,57.30
2018-08-18T18:41:34.646Z,57.50
2018-08-18T18:44:03.876Z,58.70
2018-08-18T18:46:32.315Z,58.60
2018-08-18T18:49:01.044Z,59.00
2018-08-18T18:51:30.210Z,59.70
2018-08-18T18:53:58.675Z,60.60
2018-08-18T18:56:27.089Z,60.00
2018-08-18T18:58:55.556Z,59.50
2018-08-18T19:01:24.389Z,60.30
2018-08-18T19:03:52.834Z,60.10
2018-08-18T19:06:21.361Z,60.70
2018-08-18T19:08:58.416Z,60.50
2018-08-18T19:11:28.323Z,61.10
2018-08-18T19:13:57.600Z,59.60
2018-08-18T19:16:26.131Z,60.60
2018-08-18T19:18:54.869Z,61.70
2018-08-18T19:21:28.126Z,62.20
2018-08-18T19:23:56.516Z,62.20
2018-08-18T19:26:25.136Z,61.40
2018-08-18T19:28:53.460Z,60.20
2018-08-18T19:31:26.088Z,60.60
2018-08-18T19:34:03.484Z,60.20
2018-08-18T19:36:33.290Z,62.10
2018-08-18T19:39:01.968Z,61.70
2018-08-18T19:41:30.402Z,63.00
2018-08-18T19:43:58.895Z,62.80
2018-08-18T19:46:27.731Z,65.60
2018-08-18T19:48:56.219Z,65.00
2018-08-18T19:51:24.620Z,65.70
2018-08-18T19:53:53.588Z,64.80
2018-08-18T19:56:21.962Z,63.80
2018-08-18T19:58:50.620Z,63.70
2018-08-18T20:01:18.988Z,63.60
2018-08-18T20:03:47.389Z,64.80
2018-08-18T20:06:20.740Z,65.60
2018-08-18T20:08:49.242Z,65.80
2018-08-18T20:11:17.699Z,65.70
2018-08-18T20:13:46.211Z,66.30
2018-08-18T20:16:15.572Z,66.10
2018-08-18T20:18:43.942Z,66.30
2018-08-18T20:21:12.366Z,66.60
2018-08-18T20:23:40.853Z,66.80
2018-08-18T20:26:09.185Z,66.90
2018-08-18T20:28:37.594Z,67.10
2018-08-18T20:31:06.149Z,67.50
2018-08-18T20:33:34.486Z,67.80
2018-08-18T20:36:02.931Z,68.40
2018-08-18T20:38:36.463Z,68.80
2018-08-18T20:41:05.541Z,68.80
2018-08-18T20:43:33.923Z,68.90
2018-08-18T20:46:02.376Z,69.40
2018-08-18T20:48:31.197Z,69.60
2018-08-18T20:50:59.565Z,70.20
2018-08-18T20:53:28.051Z,70.20
2018-08-18T20:55:58.486Z,70.80
2018-08-18T20:58:27.419Z,71.70
2018-08-18T21:00:55.918Z,71.80
2018-08-18T21:03:38.616Z,72.50
2018-08-18T21:06:07.007Z,72.90
2018-08-18T21:08:35.394Z,73.90
2018-08-18T21:11:03.926Z,73.80
2018-08-18T21:13:32.285Z,73.50
2018-08-18T21:16:00.638Z,73.30
2018-08-18T21:18:29.501Z,72.40
2018-08-18T21:20:57.900Z,71.50
2018-08-18T21:23:26.516Z,72.30
2018-08-18T21:25:54.984Z,72.50
2018-08-18T21:28:24.683Z,72.50
2018-08-18T21:30:53.136Z,72.60
2018-08-18T21:33:24.591Z,73.30
2018-08-18T21:35:53.498Z,72.90
2018-08-18T21:38:23.169Z,72.30
2018-08-18T21:40:51.583Z,73.60
2018-08-18T21:43:31.848Z,73.90
2018-08-18T21:46:00.258Z,74.30
2018-08-18T21:48:48.478Z,75.20
2018-08-18T21:51:16.904Z,74.60
2018-08-18T21:53:45.853Z,74.60
2018-08-18T21:56:14.273Z,74.40
2018-08-18T21:58:42.639Z,74.70
2018-08-18T22:01:18.297Z,76.00
2018-08-18T22:03:47.839Z,77.00
2018-08-18T22:06:16.254Z,75.70
2018-08-18T22:08:44.750Z,73.90
2018-08-18T22:11:16.904Z,74.00
2018-08-18T22:13:50.881Z,73.80
2018-08-18T22:16:19.395Z,73.60
2018-08-18T22:18:54.287Z,73.40
2018-08-18T22:21:28.669Z,74.00
2018-08-18T22:23:59.352Z,75.10
2018-08-18T22:26:28.012Z,74.30
2018-08-18T22:29:00.807Z,75.20
2018-08-18T22:31:29.715Z,75.80
2018-08-18T22:33:59.196Z,77.40
2018-08-18T22:36:30.268Z,77.90
2018-08-18T22:38:59.249Z,78.10
2018-08-18T22:41:27.693Z,79.50
2018-08-18T22:43:56.799Z,79.60
2018-08-18T22:46:25.312Z,79.30
2018-08-18T22:48:54.060Z,80.20
2018-08-18T22:51:23.099Z,80.60
2018-08-18T22:53:53.101Z,78.90
2018-08-18T22:56:22.364Z,79.80
2018-08-18T22:58:56.776Z,81.60
2018-08-18T23:01:25.907Z,81.30
2018-08-18T23:03:54.400Z,81.60
2018-08-18T23:06:22.808Z,81.80
2018-08-18T23:08:51.206Z,82.20
2018-08-18T23:11:19.554Z,82.40
2018-08-18T23:13:47.967Z,83.30
2018-08-18T23:16:16.414Z,83.00
2018-08-18T23:18:44.836Z,83.00
2018-08-18T23:21:16.878Z,82.80
2018-08-18T23:23:45.255Z,83.40
2018-08-18T23:26:13.614Z,84.00
2018-08-18T23:28:43.824Z,82.40
2018-08-18T23:31:12.252Z,83.50
2018-08-18T23:33:41.245Z,84.30
2018-08-18T23:36:09.610Z,84.50
2018-08-18T23:38:44.291Z,85.00
2018-08-18T23:41:12.676Z,85.90
2018-08-18T23:43:41.061Z,86.40
2018-08-18T23:46:09.457Z,86.60
2018-08-18T23:48:37.958Z,85.30
2018-08-18T23:51:06.966Z,84.70
2018-08-18T23:53:35.383Z,84.60
2018-08-18T23:56:03.822Z,84.60
2018-08-18T23:58:32.318Z,84.60
